Time;durP1;ratioP1;P1;durP2;ratioP2;P2;SDS_P1;SDS_P2;PMS_P1;PMS_P2;Temp;Humidity;BMP_temperature;BMP_pressure;BME280_temperature;BME280_humidity;BME280_pressure;Samples;Min_cycle;Max_cycle;Signal;HPM_P1;HPM_P2
2021/10/30 00:00:12;;;;;;;16.27;9.30;;;;;;;-142.75;100.00;76340.00;5046585;28;20032;-68
2021/10/30 00:02:38;;;;;;;15.15;9.82;;;;;;;-142.75;100.00;76332.13;5047487;28;20082;-69
2021/10/30 00:05:09;;;;;;;14.02;9.02;;;;;;;-142.75;100.00;76338.03;5020184;28;20053;-70
2021/10/30 00:07:35;;;;;;;14.57;8.90;;;;;;;-142.75;100.00;76334.09;5035780;28;20025;-70
2021/10/30 00:10:00;;;;;;;12.32;8.27;;;;;;;-142.75;100.00;76334.09;5042076;28;20037;-69
2021/10/30 00:12:26;;;;;;;14.45;9.00;;;;;;;-142.75;100.00;76334.09;5027066;28;20039;-68
2021/10/30 00:14:51;;;;;;;13.80;8.93;;;;;;;-142.75;100.00;76343.94;5022969;28;20022;-70
2021/10/30 00:17:16;;;;;;;11.57;8.43;;;;;;;-142.75;100.00;76347.84;5037492;28;20100;-71
2021/10/30 00:19:42;;;;;;;13.93;8.55;;;;;;;-142.75;100.00;76361.63;5039399;28;20157;-67
2021/10/30 00:22:08;;;;;;;;;;;;;;;-142.75;100.00;76379.34;5040051;28;20825;-69
2021/10/30 00:24:33;;;;;;;12.80;9.00;;;;;;;-142.75;100.00;76373.44;5036940;28;20007;-70
2021/10/30 00:27:04;;;;;;;12.50;7.32;;;;;;;-142.75;100.00;76383.28;5026406;28;20067;-70
2021/10/30 00:29:30;;;;;;;13.98;7.78;;;;;;;-142.75;100.00;76365.56;5040380;28;20601;-70
2021/10/30 00:31:55;;;;;;;;;;;;;;;-142.75;100.00;76371.47;5038999;28;20025;-70
2021/10/30 00:34:22;;;;;;;12.82;7.63;;;;;;;-142.75;100.00;76391.16;5036393;28;19919;-68
2021/10/30 00:36:50;;;;;;;12.30;8.10;;;;;;;-142.75;100.00;76391.16;5041664;28;20028;-69
2021/10/30 00:39:16;;;;;;;14.38;8.73;;;;;;;-142.75;100.00;76379.34;5042214;28;20463;-71
2021/10/30 00:41:47;;;;;;;12.38;8.40;;;;;;;-142.75;100.00;76369.50;5037675;28;20104;-68
2021/10/30 00:44:12;;;;;;;15.00;9.45;;;;;;;-142.75;100.00;76369.50;5043394;28;20427;-68
2021/10/30 00:46:48;;;;;;;15.80;11.00;;;;;;;-142.75;100.00;76369.50;5020548;28;20022;-69
2021/10/30 00:49:14;;;;;;;15.82;10.90;;;;;;;-142.75;100.00;76377.38;5030908;28;20040;-69
2021/10/30 00:51:42;;;;;;;17.90;11.00;;;;;;;-142.75;100.00;76363.59;5017955;28;20076;-69
2021/10/30 00:54:09;;;;;;;16.13;10.02;;;;;;;-142.75;100.00;76357.69;5035351;28;20037;-69
2021/10/30 00:56:36;;;;;;;17.80;10.23;;;;;;;-142.75;100.00;76363.59;5039363;28;20091;-69
2021/10/30 00:59:04;;;;;;;16.33;11.23;;;;;;;-142.75;100.00;76351.81;5032012;28;20504;-69
2021/10/30 01:01:30;;;;;;;15.25;11.20;;;;;;;-142.75;100.00;76355.72;5034798;28;20390;-70
2021/10/30 01:03:56;;;;;;;15.02;10.85;;;;;;;-142.75;100.00;76351.81;5041457;28;20025;-68
2021/10/30 01:06:22;;;;;;;19.98;12.00;;;;;;;-142.75;100.00;76340.00;5041082;28;20021;-70
2021/10/30 01:08:47;;;;;;;15.40;11.30;;;;;;;-142.75;100.00;76357.69;5042798;28;20032;-70
2021/10/30 01:11:15;;;;;;;15.68;10.38;;;;;;;-142.75;100.00;76363.59;5019887;28;20155;-71
2021/10/30 01:13:41;;;;;;;17.13;11.25;;;;;;;-142.75;100.00;76363.59;5044570;28;20022;-71
2021/10/30 01:16:07;;;;;;;17.67;11.05;;;;;;;-142.75;100.00;76361.63;5039935;28;20035;-70
2021/10/30 01:18:32;;;;;;;14.43;9.65;;;;;;;-142.75;100.00;76347.84;5039936;28;20105;-69
2021/10/30 01:20:57;;;;;;;;;;;;;;;-142.75;100.00;76357.69;5040778;28;20021;-70
2021/10/30 01:23:22;;;;;;;14.85;8.13;;;;;;;-142.75;100.00;76353.78;5034147;28;20293;-70
2021/10/30 01:25:55;;;;;;;10.85;7.18;;;;;;;-142.75;100.00;76353.78;5019094;28;20029;-70
2021/10/30 01:28:21;;;;;;;10.93;7.63;;;;;;;-142.75;100.00;76361.63;5038704;28;20025;-70
2021/10/30 01:30:46;;;;;;;9.63;6.95;;;;;;;-142.75;100.00;76361.63;5047397;28;20021;-69
2021/10/30 01:33:11;;;;;;;13.23;6.85;;;;;;;-142.75;100.00;76373.44;5023137;28;20056;-73
2021/10/30 01:35:43;;;;;;;;;;;;;;;-142.75;100.00;76361.63;5045052;28;20075;-69
2021/10/30 01:38:11;;;;;;;9.98;6.90;;;;;;;-142.75;100.00;76367.53;5038494;28;19924;-70
2021/10/30 01:40:40;;;;;;;9.30;6.13;;;;;;;-142.75;100.00;76377.38;5037280;28;20029;-71
2021/10/30 01:43:06;;;;;;;12.80;6.97;;;;;;;-142.75;100.00;76377.38;5038644;28;20014;-68
2021/10/30 01:45:32;;;;;;;9.32;6.72;;;;;;;-142.75;100.00;76389.19;5039802;28;20111;-69
2021/10/30 01:47:58;;;;;;;10.88;7.10;;;;;;;-142.75;100.00;76385.25;5037706;28;20051;-70
2021/10/30 01:50:25;;;;;;;10.48;6.75;;;;;;;-142.75;100.00;76377.38;5044758;28;20021;-69
2021/10/30 01:52:52;;;;;;;11.63;6.80;;;;;;;-142.75;100.00;76387.22;5044940;28;20052;-68
2021/10/30 01:55:19;;;;;;;9.75;7.28;;;;;;;-142.75;100.00;76397.06;5043481;28;20076;-71
2021/10/30 01:57:46;;;;;;;11.93;6.85;;;;;;;-142.75;100.00;76373.44;5033994;28;20029;-70
2021/10/30 02:00:12;;;;;;;14.15;7.07;;;;;;;-142.75;100.00;76361.63;5024547;28;20078;-73
2021/10/30 02:02:38;;;;;;;13.02;7.13;;;;;;;-142.75;100.00;76353.78;5035823;28;20025;-69
2021/10/30 02:05:04;;;;;;;14.32;7.25;;;;;;;-142.75;100.00;76341.97;5038925;28;20398;-69
2021/10/30 02:07:30;;;;;;;13.02;7.13;;;;;;;-142.75;100.00;76340.00;5039984;28;20112;-69
2021/10/30 02:09:55;;;;;;;10.57;7.60;;;;;;;-142.75;100.00;76341.97;5036610;28;20105;-70
2021/10/30 02:12:20;;;;;;;;;;;;;;;-142.75;100.00;76328.19;5039683;28;20116;-69
2021/10/30 02:14:45;;;;;;;10.02;6.93;;;;;;;-142.75;100.00;76308.50;5040742;28;20386;-70
2021/10/30 02:17:11;;;;;;;12.40;7.80;;;;;;;-142.75;100.00;76314.41;5023511;28;20112;-70
2021/10/30 02:19:36;;;;;;;10.38;7.00;;;;;;;-142.75;100.00;76328.19;5019264;28;20590;-69
2021/10/30 02:22:02;;;;;;;11.60;8.07;;;;;;;-142.75;100.00;76314.41;5039142;28;20032;-70
2021/10/30 02:24:27;;;;;;;11.15;7.82;;;;;;;-142.75;100.00;76306.53;5021181;28;20040;-70
2021/10/30 02:26:53;;;;;;;11.35;7.10;;;;;;;-142.75;100.00;76288.81;5041620;28;20032;-69
2021/10/30 02:29:18;;;;;;;11.27;7.95;;;;;;;-142.75;100.00;76290.78;5040971;28;20052;-70
2021/10/30 02:31:43;;;;;;;12.82;7.47;;;;;;;-142.75;100.00;76292.75;5015521;28;20112;-69
2021/10/30 02:34:08;;;;;;;9.82;7.28;;;;;;;-142.75;100.00;76292.75;5019029;28;20104;-71
2021/10/30 02:36:34;;;;;;;11.90;7.68;;;;;;;-142.75;100.00;76278.97;5023064;28;20048;-69
2021/10/30 02:38:59;;;;;;;10.52;7.22;;;;;;;-142.75;100.00;76294.72;5037586;28;20105;-70
2021/10/30 02:41:25;;;;;;;9.93;7.35;;;;;;;-142.75;100.00;76294.72;5036235;28;20082;-69
2021/10/30 02:43:50;;;;;;;;;;;;;;;-142.75;100.00;76296.69;5026418;28;20021;-69
2021/10/30 02:46:16;;;;;;;13.27;7.47;;;;;;;-142.75;100.00;76298.66;5040898;28;19950;-69
2021/10/30 02:48:41;;;;;;;9.93;7.82;;;;;;;-142.75;100.00;76302.59;5037553;28;20025;-70
2021/10/30 02:51:06;;;;;;;10.90;6.78;;;;;;;-142.75;100.00;76282.91;5034925;28;20497;-72
2021/10/30 02:53:32;;;;;;;;;;;;;;;-142.75;100.00;76290.78;5022446;28;20017;-70
2021/10/30 02:55:57;;;;;;;11.90;7.88;;;;;;;-142.75;100.00;76290.78;5037817;28;19912;-69
2021/10/30 02:58:22;;;;;;;14.40;8.18;;;;;;;-142.75;100.00;76284.88;5017476;28;20060;-69
2021/10/30 03:00:48;;;;;;;13.07;8.13;;;;;;;-142.75;100.00;76290.78;5021345;28;20028;-70
2021/10/30 03:03:14;;;;;;;14.27;8.43;;;;;;;-142.75;100.00;76278.97;5038419;28;20028;-69
2021/10/30 03:05:39;;;;;;;12.90;8.30;;;;;;;-142.75;100.00;76286.84;5048222;28;20416;-70
2021/10/30 03:08:05;;;;;;;10.27;7.82;;;;;;;-142.75;100.00;76280.94;5039043;28;20024;-69
2021/10/30 03:10:30;;;;;;;12.20;8.40;;;;;;;-142.75;100.00;76275.03;5039597;28;20028;-70
2021/10/30 03:12:56;;;;;;;11.45;8.20;;;;;;;-142.75;100.00;76271.09;5039576;28;20029;-69
2021/10/30 03:15:21;;;;;;;11.82;8.55;;;;;;;-142.75;100.00;76259.28;5019132;28;20048;-70
2021/10/30 03:17:48;;;;;;;12.32;8.52;;;;;;;-142.75;100.00;76259.28;5037677;28;20033;-69
2021/10/30 03:20:14;;;;;;;13.18;9.00;;;;;;;-142.75;100.00;76259.28;5045532;28;20028;-70
2021/10/30 03:22:39;;;;;;;12.20;8.35;;;;;;;-142.75;100.00;76265.19;5036660;28;20016;-70
2021/10/30 03:25:05;;;;;;;13.68;9.30;;;;;;;-142.75;100.00;76265.19;5037720;28;20103;-68
2021/10/30 03:27:30;;;;;;;13.88;8.82;;;;;;;-142.75;100.00;76229.75;5025341;28;20029;-69
2021/10/30 03:29:55;;;;;;;12.57;8.65;;;;;;;-142.75;100.00;76265.19;5039792;28;20225;-69
2021/10/30 03:32:21;;;;;;;12.05;8.50;;;;;;;-142.75;100.00;76263.22;5040746;28;20021;-70
2021/10/30 03:34:46;;;;;;;11.75;8.45;;;;;;;-142.75;100.00;76271.09;5044710;28;20104;-70
2021/10/30 03:37:11;;;;;;;16.52;9.13;;;;;;;-142.75;100.00;76275.03;5020449;28;20036;-69
2021/10/30 03:39:37;;;;;;;12.65;9.07;;;;;;;-142.75;100.00;76284.88;5035618;28;20017;-74
2021/10/30 03:42:03;;;;;;;12.15;8.90;;;;;;;-142.75;100.00;76280.94;5035537;28;20431;-69
2021/10/30 03:44:29;;;;;;;15.40;9.27;;;;;;;-142.75;100.00;76278.97;5037895;28;20483;-69
2021/10/30 03:46:54;;;;;;;14.63;10.00;;;;;;;-142.75;100.00;76284.88;5035703;28;20087;-70
2021/10/30 03:49:19;;;;;;;15.77;9.90;;;;;;;-142.75;100.00;76273.06;5030410;28;20508;-70
2021/10/30 03:51:45;;;;;;;12.57;9.55;;;;;;;-142.75;100.00;76273.06;5041566;28;20025;-69
2021/10/30 03:54:10;;;;;;;13.80;9.80;;;;;;;-142.75;100.00;76278.97;5039215;28;20080;-70
2021/10/30 03:56:35;;;;;;;17.75;10.40;;;;;;;-142.75;100.00;76275.03;5029716;28;20037;-69
2021/10/30 03:59:01;;;;;;;11.43;9.13;;;;;;;-142.75;100.00;76277.00;5034373;28;20018;-70
2021/10/30 04:01:26;;;;;;;13.70;9.57;;;;;;;-142.75;100.00;76277.00;5036733;28;20713;-70
2021/10/30 04:03:51;;;;;;;14.50;10.43;;;;;;;-142.75;100.00;76273.06;5037135;28;20483;-70
2021/10/30 04:06:17;;;;;;;16.08;10.07;;;;;;;-142.75;100.00;76273.06;5037135;28;20026;-70
2021/10/30 04:08:44;;;;;;;15.30;10.32;;;;;;;-142.75;100.00;76265.19;5036978;28;20063;-70
2021/10/30 04:11:09;;;;;;;13.05;9.68;;;;;;;-142.75;100.00;76273.06;5036959;28;20025;-71
2021/10/30 04:13:34;;;;;;;15.40;10.13;;;;;;;-142.75;100.00;76275.03;5019168;28;20506;-68
2021/10/30 04:16:00;;;;;;;15.73;9.57;;;;;;;-142.75;100.00;76261.25;5033792;28;20040;-70
2021/10/30 04:18:25;;;;;;;15.67;10.17;;;;;;;-142.75;100.00;76261.25;5035964;28;20087;-69
2021/10/30 04:20:50;;;;;;;15.57;10.32;;;;;;;-142.75;100.00;76245.50;5040467;28;20279;-70
2021/10/30 04:23:15;;;;;;;13.10;9.67;;;;;;;-142.75;100.00;76237.63;5039804;28;20053;-69
2021/10/30 04:25:47;;;;;;;15.20;10.05;;;;;;;-142.75;100.00;76235.66;5035794;28;20685;-73
2021/10/30 04:28:12;;;;;;;14.05;9.95;;;;;;;-142.75;100.00;76235.66;5027744;28;20073;-67
2021/10/30 04:30:38;;;;;;;12.23;9.63;;;;;;;-142.75;100.00;76239.59;5009458;28;20053;-69
2021/10/30 04:33:04;;;;;;;12.73;10.07;;;;;;;-142.75;100.00;76231.72;5027739;28;20021;-68
2021/10/30 04:35:30;;;;;;;15.23;10.68;;;;;;;-142.75;100.00;76229.75;5012297;28;20025;-69
2021/10/30 04:37:55;;;;;;;16.42;10.23;;;;;;;-142.75;100.00;76221.88;5031784;28;20032;-68
2021/10/30 04:40:20;;;;;;;15.93;10.40;;;;;;;-142.75;100.00;76212.03;5030975;28;20138;-69
2021/10/30 04:42:46;;;;;;;16.70;10.35;;;;;;;-142.75;100.00;76223.84;5031915;28;20460;-69
2021/10/30 04:45:11;;;;;;;15.25;10.25;;;;;;;-142.75;100.00;76219.91;5031679;28;20072;-70
2021/10/30 04:47:37;;;;;;;13.55;10.20;;;;;;;-142.75;100.00;76223.84;5031940;28;20486;-70
2021/10/30 04:50:03;;;;;;;;;;;;;;;-142.75;100.00;76217.94;5031224;28;20032;-71
2021/10/30 04:52:28;;;;;;;18.15;10.65;;;;;;;-142.75;100.00;76215.97;5031386;28;19917;-70
2021/10/30 04:54:53;;;;;;;15.82;10.45;;;;;;;-142.75;100.00;76206.13;5029655;28;20108;-71
2021/10/30 04:57:18;;;;;;;14.43;10.63;;;;;;;-142.75;100.00;76225.81;5031767;28;20376;-70
2021/10/30 04:59:44;;;;;;;20.40;10.48;;;;;;;-142.75;100.00;76212.03;5013205;28;20029;-70
2021/10/30 05:02:09;;;;;;;17.73;10.48;;;;;;;-142.75;100.00;76217.94;5031408;28;20022;-70
2021/10/30 05:04:34;;;;;;;18.25;10.60;;;;;;;-142.75;100.00;76219.91;5030349;28;20026;-70
2021/10/30 05:07:00;;;;;;;12.98;9.95;;;;;;;-142.75;100.00;76208.09;5019921;28;20037;-69
2021/10/30 05:09:25;;;;;;;12.48;9.90;;;;;;;-142.75;100.00;76208.09;5032023;28;20474;-70
2021/10/30 05:11:51;;;;;;;15.55;10.38;;;;;;;-142.75;100.00;76206.13;5036741;28;20090;-70
2021/10/30 05:14:16;;;;;;;13.10;9.25;;;;;;;-142.75;100.00;76202.19;5035909;28;20033;-69
2021/10/30 05:16:42;;;;;;;14.60;9.57;;;;;;;-142.75;100.00;76194.34;5030265;28;20553;-70
2021/10/30 05:19:07;;;;;;;12.35;9.70;;;;;;;-142.75;100.00;76198.28;5030180;28;20026;-69
2021/10/30 05:21:32;;;;;;;14.93;10.40;;;;;;;-142.75;100.00;76200.25;5029071;28;20041;-68
2021/10/30 05:23:58;;;;;;;15.80;10.63;;;;;;;-142.75;100.00;76192.38;5029723;28;20096;-69
2021/10/30 05:26:24;;;;;;;13.27;9.75;;;;;;;-142.75;100.00;76188.44;5012110;28;20026;-70
2021/10/30 05:28:51;;;;;;;14.38;9.45;;;;;;;-142.75;100.00;76176.63;5013675;28;20028;-69
2021/10/30 05:31:16;;;;;;;16.95;9.98;;;;;;;-142.75;100.00;76176.63;5048576;28;20554;-70
2021/10/30 05:33:41;;;;;;;15.05;10.23;;;;;;;-142.75;100.00;76172.69;5042542;28;20108;-68
2021/10/30 05:36:09;;;;;;;14.38;10.43;;;;;;;-142.75;100.00;76168.75;5037493;28;20032;-69
2021/10/30 05:38:35;;;;;;;15.93;10.20;;;;;;;-142.75;100.00;76156.94;5031039;28;20493;-70
2021/10/30 05:41:01;;;;;;;;;;;;;;;-142.75;100.00;76143.16;5045347;28;20033;-70
2021/10/30 05:43:26;;;;;;;18.70;10.50;;;;;;;-142.75;100.00;76145.13;5037371;28;19919;-70
2021/10/30 05:45:52;;;;;;;17.50;9.88;;;;;;;-142.75;100.00;76141.19;5029092;28;20037;-70
2021/10/30 05:48:18;;;;;;;15.07;9.43;;;;;;;-142.75;100.00;76145.13;5029297;28;20055;-69
2021/10/30 05:50:43;;;;;;;;;;;;;;;-142.75;100.00;76141.19;5028899;28;20080;-69
2021/10/30 05:53:08;;;;;;;16.17;9.73;;;;;;;-142.75;100.00;76137.25;5028105;28;19972;-70
2021/10/30 05:55:34;;;;;;;18.13;9.07;;;;;;;-142.75;100.00;76133.31;5029378;28;20471;-70
2021/10/30 05:58:00;;;;;;;14.48;8.95;;;;;;;-142.75;100.00;76129.38;5029930;28;20022;-70
2021/10/30 06:00:25;;;;;;;16.35;8.65;;;;;;;-142.75;100.00;76127.41;5028710;28;20029;-69
2021/10/30 06:02:51;;;;;;;14.40;8.68;;;;;;;-142.75;100.00;76123.47;5011292;28;20021;-70
2021/10/30 06:05:16;;;;;;;15.77;9.63;;;;;;;-142.75;100.00;76123.47;5028870;28;20053;-70
2021/10/30 06:07:41;;;;;;;14.82;9.05;;;;;;;-142.75;100.00;76107.72;5029781;28;20045;-69
2021/10/30 06:10:07;;;;;;;14.32;8.82;;;;;;;-142.75;100.00;76101.81;5011728;28;20030;-69
2021/10/30 06:12:37;;;;;;;;;;;;;;;-142.75;100.00;76105.75;5012470;28;20072;-69
2021/10/30 06:15:03;;;;;;;13.18;8.57;;;;;;;-142.75;100.00;76115.59;5029956;28;19912;-69
2021/10/30 06:17:28;;;;;;;17.63;9.02;;;;;;;-142.75;100.00;76105.75;5029884;28;20036;-70
2021/10/30 06:19:54;;;;;;;12.40;9.38;;;;;;;-142.75;100.00;76105.75;5027794;28;20104;-69
2021/10/30 06:22:19;;;;;;;14.27;8.40;;;;;;;-142.75;100.00;76101.81;5029665;28;20022;-69
2021/10/30 06:24:44;;;;;;;12.93;8.35;;;;;;;-142.75;100.00;76123.47;5029946;28;20028;-69
2021/10/30 06:27:10;;;;;;;14.32;7.78;;;;;;;-142.75;100.00;76117.56;5029636;28;20099;-69
2021/10/30 06:29:36;;;;;;;13.30;8.45;;;;;;;-142.75;100.00;76105.75;5029964;28;20044;-70
2021/10/30 06:32:01;;;;;;;12.60;8.30;;;;;;;-142.75;100.00;76099.84;5011242;28;20029;-69
2021/10/30 06:34:27;;;;;;;15.43;8.23;;;;;;;-142.75;100.00;76097.88;5029639;28;20025;-70
2021/10/30 06:36:53;;;;;;;14.02;8.38;;;;;;;-142.75;100.00;76101.81;5029395;28;20394;-68
2021/10/30 06:39:18;;;;;;;13.07;8.05;;;;;;;-142.75;100.00;76101.81;5011821;28;20029;-69
2021/10/30 06:41:45;;;;;;;11.07;7.65;;;;;;;-142.75;100.00;76099.84;5011323;28;20033;-69
2021/10/30 06:44:10;;;;;;;15.55;8.07;;;;;;;-142.75;100.00;76082.13;5029261;28;20037;-69
2021/10/30 06:46:35;;;;;;;12.70;8.15;;;;;;;-142.75;100.00;76090.00;5046504;28;20032;-69
2021/10/30 06:49:01;;;;;;;10.95;7.63;;;;;;;-142.75;100.00;76082.13;5049274;28;20017;-70
2021/10/30 06:51:26;;;;;;;12.85;8.20;;;;;;;-142.75;100.00;76078.19;5048161;28;20029;-70
2021/10/30 06:53:52;;;;;;;9.52;7.13;;;;;;;-142.75;100.00;76080.16;5048826;28;20409;-69
2021/10/30 06:56:19;;;;;;;10.30;7.53;;;;;;;-142.75;100.00;76066.41;5049018;28;20039;-70
2021/10/30 06:58:45;;;;;;;10.75;7.75;;;;;;;-142.75;100.00;76062.47;5030917;28;20478;-70
2021/10/30 07:01:13;;;;;;;10.95;8.05;;;;;;;-142.75;100.00;76054.59;5048018;28;20024;-69
2021/10/30 07:03:40;;;;;;;9.73;7.00;;;;;;;-142.75;100.00;76064.44;5045570;28;20096;-68
2021/10/30 07:06:06;;;;;;;12.43;8.45;;;;;;;-142.75;100.00;76078.19;5028781;28;20044;-70
2021/10/30 07:08:32;;;;;;;14.88;7.82;;;;;;;-142.75;100.00;76066.41;5011336;28;20048;-67
2021/10/30 07:10:57;;;;;;;13.60;8.38;;;;;;;-142.75;100.00;76074.25;5028277;28;20467;-69
2021/10/30 07:13:22;;;;;;;12.82;8.38;;;;;;;-142.75;100.00;76058.53;5028825;28;20033;-70
2021/10/30 07:15:48;;;;;;;13.75;7.80;;;;;;;-142.75;100.00;76050.66;5029029;28;20021;-69
2021/10/30 07:18:14;;;;;;;12.07;7.53;;;;;;;-142.75;100.00;76050.66;5011051;28;20027;-69
2021/10/30 07:20:39;;;;;;;14.32;9.00;;;;;;;-142.75;100.00;76060.50;5028401;28;20029;-70
2021/10/30 07:23:04;;;;;;;13.18;7.60;;;;;;;-142.75;100.00;76050.66;5011085;28;20030;-69
2021/10/30 07:25:30;;;;;;;14.18;8.95;;;;;;;-142.75;100.00;76042.78;5028427;28;20032;-68
2021/10/30 07:27:55;;;;;;;12.88;8.35;;;;;;;-142.75;100.00;76030.97;5011569;28;20021;-69
2021/10/30 07:30:21;;;;;;;11.43;8.60;;;;;;;-142.75;100.00;76036.88;5010310;28;20398;-69
2021/10/30 07:32:52;;;;;;;12.05;8.32;;;;;;;-142.75;100.00;76040.81;5028465;28;20026;-68
2021/10/30 07:35:19;;;;;;;12.63;8.25;;;;;;;-142.75;100.00;76027.03;5028477;28;20031;-69
2021/10/30 07:37:44;;;;;;;13.05;7.93;;;;;;;-142.75;100.00;76040.81;5028976;28;20029;-69
2021/10/30 07:40:10;;;;;;;12.40;7.32;;;;;;;-142.75;100.00;76030.97;5010028;28;20026;-69
2021/10/30 07:42:35;;;;;;;10.93;8.02;;;;;;;-142.75;100.00;76023.09;5028352;28;20112;-69
2021/10/30 07:45:02;;;;;;;14.85;8.07;;;;;;;-142.75;100.00;76019.16;5028375;28;20028;-68
2021/10/30 07:47:27;;;;;;;12.52;7.90;;;;;;;-142.75;100.00;76013.25;5009813;28;20458;-68
2021/10/30 07:49:52;;;;;;;12.70;7.70;;;;;;;-142.75;100.00;76021.13;5008749;28;20031;-70
2021/10/30 07:52:18;;;;;;;11.15;7.57;;;;;;;-142.75;100.00;76025.06;5009937;28;20125;-68
2021/10/30 07:54:43;;;;;;;10.95;7.53;;;;;;;-142.75;100.00;76027.03;5010524;28;20560;-69
2021/10/30 07:57:10;;;;;;;13.20;8.05;;;;;;;-142.75;100.00;76030.97;5008959;28;20029;-70
2021/10/30 07:59:36;;;;;;;12.52;8.20;;;;;;;-142.75;100.00;76038.84;5010703;28;20056;-69
2021/10/30 08:02:03;;;;;;;14.65;7.65;;;;;;;-142.75;100.00;76054.59;5027577;28;20021;-69
2021/10/30 08:04:29;;;;;;;10.93;7.85;;;;;;;-142.75;100.00;76034.91;5010349;28;20026;-68
2021/10/30 08:06:55;;;;;;;9.90;7.03;;;;;;;-142.75;100.00;76034.91;5010473;28;20029;-68
2021/10/30 08:09:20;;;;;;;13.63;8.05;;;;;;;-142.75;100.00;76019.16;5009844;28;20491;-69
2021/10/30 08:11:45;;;;;;;12.40;7.57;;;;;;;-142.75;100.00;76027.03;5009770;28;20027;-70
2021/10/30 08:14:11;;;;;;;12.95;7.32;;;;;;;-142.75;100.00;76027.03;5028123;28;20025;-69
2021/10/30 08:16:37;;;;;;;11.77;6.82;;;;;;;-142.75;100.00;76015.22;5027970;28;20068;-69
2021/10/30 08:19:03;;;;;;;10.10;6.50;;;;;;;-142.75;100.00;76027.03;5010580;28;20029;-67
2021/10/30 08:21:29;;;;;;;10.27;6.25;;;;;;;-142.75;100.00;76011.28;5027338;28;20037;-69
2021/10/30 08:23:54;;;;;;;12.73;6.18;;;;;;;-142.75;100.00;76003.41;5027941;28;20419;-68
2021/10/30 08:26:20;;;;;;;11.75;6.65;;;;;;;-142.75;100.00;76030.97;5009969;28;20936;-71
2021/10/30 08:28:45;;;;;;;13.00;6.63;;;;;;;-142.75;100.00;76017.19;5011040;28;20021;-70
2021/10/30 08:31:11;;;;;;;10.05;5.72;;;;;;;-142.75;100.00;76007.34;5040751;28;20060;-69
2021/10/30 08:33:37;;;;;;;8.90;5.45;;;;;;;-142.75;100.00;76011.28;5047839;28;20079;-69
2021/10/30 08:36:05;;;;;;;12.40;6.10;;;;;;;-142.75;100.00;76007.34;5029982;28;20458;-68
2021/10/30 08:38:31;;;;;;;7.57;5.93;;;;;;;-142.75;100.00;76021.13;5049127;28;20078;-69
2021/10/30 08:40:57;;;;;;;10.32;5.28;;;;;;;-142.75;100.00;76009.31;5029608;28;20028;-68
2021/10/30 08:43:24;;;;;;;;;;;;;;;-142.75;100.00;76025.06;5030108;28;20017;-69
2021/10/30 08:45:50;;;;;;;9.85;5.78;;;;;;;-142.75;100.00;76009.31;5047421;28;19913;-68
2021/10/30 08:48:21;;;;;;;9.70;6.38;;;;;;;-142.75;100.00;76019.16;5047240;28;20025;-68
2021/10/30 08:50:47;;;;;;;8.02;6.20;;;;;;;-142.75;100.00;76013.25;5029207;28;20033;-69
2021/10/30 08:53:12;;;;;;;;;;;;;;;-142.75;100.00;76003.41;5044158;28;20114;-69
2021/10/30 08:55:38;;;;;;;8.45;6.10;;;;;;;-142.75;100.00;76005.38;5027933;28;20542;-69
2021/10/30 08:58:14;;;;;;;9.32;5.93;;;;;;;-142.75;100.00;75991.59;5026281;28;20019;-69
2021/10/30 09:00:46;;;;;;;12.20;6.95;;;;;;;-142.75;100.00;75997.50;5009220;28;20478;-69
2021/10/30 09:03:14;;;;;;;11.93;6.40;;;;;;;-142.75;100.00;75997.50;5026956;28;20368;-68
2021/10/30 09:05:42;;;;;;;7.93;5.80;;;;;;;-142.75;100.00;76005.38;5027718;28;20029;-70
2021/10/30 09:08:11;;;;;;;12.18;6.32;;;;;;;-142.75;100.00;76003.41;5027561;28;20029;-69
2021/10/30 09:10:48;;;;;;;10.32;6.68;;;;;;;-142.75;100.00;76003.41;5026838;28;20112;-69
2021/10/30 09:13:18;;;;;;;11.13;6.60;;;;;;;-142.75;100.00;76003.41;5027001;28;20033;-69
2021/10/30 09:15:51;;;;;;;9.93;6.55;;;;;;;-142.75;100.00;76011.28;5027392;28;20036;-69
2021/10/30 09:18:21;;;;;;;14.20;7.07;;;;;;;-142.75;100.00;75989.63;5009430;28;20032;-68
2021/10/30 09:20:48;;;;;;;10.82;6.53;;;;;;;-142.75;100.00;76005.38;5029714;28;20037;-69
2021/10/30 09:23:20;;;;;;;10.88;6.85;;;;;;;-142.75;100.00;76003.41;5012622;28;20027;-68
2021/10/30 09:26:01;;;;;;;13.60;6.90;;;;;;;-142.75;100.00;75999.47;5028978;28;20447;-69
2021/10/30 09:28:29;;;;;;;12.43;7.53;;;;;;;-142.75;100.00;76001.44;5032293;28;20074;-69
2021/10/30 09:31:12;;;;;;;10.27;7.22;;;;;;;-142.75;100.00;75991.59;5049553;28;20072;-68
2021/10/30 09:33:54;;;;;;;12.45;7.18;;;;;;;-142.75;100.00;75991.59;5050700;28;20041;-68
2021/10/30 09:36:21;;;;;;;10.02;6.85;;;;;;;-142.75;100.00;76005.38;5050465;28;20490;-70
2021/10/30 09:38:54;;;;;;;15.23;7.22;;;;;;;-142.75;100.00;75985.69;5032877;28;20021;-68
2021/10/30 09:41:33;;;;;;;13.10;8.05;;;;;;;-142.75;100.00;75981.75;5049637;28;20025;-69
2021/10/30 09:44:10;;;;;;;10.23;7.13;;;;;;;-142.75;100.00;75991.59;5050475;28;20032;-69
2021/10/30 09:46:51;;;;;;;10.63;7.65;;;;;;;-142.75;100.00;75977.81;5032392;28;20029;-69
2021/10/30 09:49:36;;;;;;;12.93;7.10;;;;;;;-142.75;100.00;75977.81;5050160;28;20087;-69
2021/10/30 09:52:04;;;;;;;11.23;7.57;;;;;;;-142.75;100.00;75979.78;5049751;28;20029;-69
2021/10/30 09:54:31;;;;;;;12.02;7.10;;;;;;;-142.75;100.00;75993.56;5043692;28;20037;-69
2021/10/30 09:56:56;;;;;;;11.13;7.43;;;;;;;-142.75;100.00;75979.78;5033451;28;20037;-68
2021/10/30 09:59:24;;;;;;;11.27;7.28;;;;;;;-142.75;100.00;75979.78;5051395;28;20032;-69
2021/10/30 10:01:50;;;;;;;10.13;6.50;;;;;;;-142.75;100.00;75979.78;5051796;28;20032;-68
2021/10/30 10:04:18;;;;;;;10.40;7.32;;;;;;;-142.75;100.00;75983.72;5051420;28;20082;-69
2021/10/30 10:06:49;;;;;;;9.93;7.03;;;;;;;-142.75;100.00;75985.69;5052533;28;20078;-69
2021/10/30 10:09:18;;;;;;;9.73;6.80;;;;;;;-142.75;100.00;75981.75;5034472;28;20029;-69
2021/10/30 10:11:51;;;;;;;9.02;6.93;;;;;;;-142.75;100.00;75967.97;5051828;28;20035;-69
2021/10/30 10:14:18;;;;;;;10.23;6.70;;;;;;;-142.75;100.00;75969.94;5052248;28;20047;-70
2021/10/30 10:16:48;;;;;;;8.98;7.00;;;;;;;-142.75;100.00;75962.09;5021361;28;20018;-68
2021/10/30 10:19:15;;;;;;;9.13;7.07;;;;;;;-142.75;100.00;75960.13;5032216;28;20029;-68
2021/10/30 10:21:42;;;;;;;10.00;7.13;;;;;;;-142.75;100.00;75960.13;5014050;28;20025;-69
2021/10/30 10:24:15;;;;;;;8.98;6.75;;;;;;;-142.75;100.00;75952.25;5029065;28;20468;-68
2021/10/30 10:26:49;;;;;;;8.13;6.50;;;;;;;-142.75;100.00;75942.41;5014503;28;20029;-68
2021/10/30 10:29:28;;;;;;;10.25;6.50;;;;;;;-142.75;100.00;75940.44;5032072;28;20021;-68
2021/10/30 10:31:54;;;;;;;7.22;5.68;;;;;;;-142.75;100.00;75944.38;5050150;22;20061;-65
2021/10/30 10:34:25;;;;;;;7.55;5.13;;;;;;;-142.75;100.00;75932.56;5012077;28;20069;-65
2021/10/30 10:37:13;;;;;;;10.13;5.93;;;;;;;-142.75;100.00;75932.56;5012201;28;20049;-65
2021/10/30 10:39:46;;;;;;;10.98;6.45;;;;;;;-142.75;100.00;75908.94;5011886;28;20022;-64
2021/10/30 10:42:14;;;;;;;9.98;6.40;;;;;;;-142.75;100.00;75912.88;5011661;28;20075;-64
2021/10/30 10:44:42;;;;;;;9.93;6.10;;;;;;;-142.75;100.00;75910.91;5012225;28;20072;-65
2021/10/30 10:47:35;;;;;;;10.30;6.82;;;;;;;-142.75;100.00;75912.88;5010955;28;20116;-64
2021/10/30 10:50:16;;;;;;;8.82;6.47;;;;;;;-142.75;100.00;75899.09;5011221;28;20018;-64
2021/10/30 10:53:08;;;;;;;8.80;6.13;;;;;;;-142.75;100.00;75905.00;5012051;28;20403;-64
2021/10/30 10:55:45;;;;;;;7.95;5.93;;;;;;;-142.75;100.00;75891.22;5011859;28;20040;-65
2021/10/30 10:58:12;;;;;;;8.73;5.68;;;;;;;-142.75;100.00;75897.13;5011778;28;20049;-65
2021/10/30 11:00:57;;;;;;;9.18;5.45;;;;;;;-142.75;100.00;75903.03;5011203;28;20036;-63
2021/10/30 11:03:27;;;;;;;10.27;5.20;;;;;;;-142.75;100.00;75889.25;5011688;28;20395;-64